North, North Carolina
Current Conditions -  °F | °C
As of 7:54 AM on Thursday 30 Oct 2014 (Local Time) from KINT Reporting Station
Clear Clear  
Wind Chill: 45°   Ceiling: Unl
Heat Index: 45°   Visibility: 10mi
Dew Point: 37°   Wind: 3mph
Humidity: 74%   Direction: 330°NNW
Pressure: 30.07"   Gusts: NA
Location:  36.165°N, 80.2349°W
Report Text: KINT 301154Z 33003KT 10SM CLR 07/03 A3007 RMK AO2 SLP182 T00720028 10128 20067 51013
Loading
Personal Weather Stations






























Interactive Weather Map
Tropical Storm Tracking
New forecast layout! Learn more

10-Day Weather Forecast

Advertisements
Track Severe Weather on mobile